sensor_id;sensor_type;location;lat;lon;timestamp;P1;durP1;ratioP1;P2;durP2;ratioP2
14306;SDS011;7237;49.500;11.400;2023-10-31T00:01:15;4.90;;;4.50;;
14306;SDS011;7237;49.500;11.400;2023-10-31T00:03:42;8.50;;;5.37;;
14306;SDS011;7237;49.500;11.400;2023-10-31T00:06:09;5.33;;;4.83;;
14306;SDS011;7237;49.500;11.400;2023-10-31T00:08:38;4.87;;;4.47;;
14306;SDS011;7237;49.500;11.400;2023-10-31T00:11:05;6.37;;;5.07;;
14306;SDS011;7237;49.500;11.400;2023-10-31T00:13:32;5.10;;;4.23;;
14306;SDS011;7237;49.500;11.400;2023-10-31T00:15:59;4.80;;;4.40;;
14306;SDS011;7237;49.500;11.400;2023-10-31T00:18:26;6.50;;;4.87;;
14306;SDS011;7237;49.500;11.400;2023-10-31T00:20:53;5.13;;;4.63;;
14306;SDS011;7237;49.500;11.400;2023-10-31T00:23:21;5.00;;;4.57;;
14306;SDS011;7237;49.500;11.400;2023-10-31T00:25:50;5.10;;;4.60;;
14306;SDS011;7237;49.500;11.400;2023-10-31T00:28:17;4.80;;;4.40;;
14306;SDS011;7237;49.500;11.400;2023-10-31T00:30:44;3.87;;;3.53;;
14306;SDS011;7237;49.500;11.400;2023-10-31T00:33:12;6.50;;;3.80;;
14306;SDS011;7237;49.500;11.400;2023-10-31T00:35:39;3.80;;;3.50;;
14306;SDS011;7237;49.500;11.400;2023-10-31T00:38:06;2.93;;;2.73;;
14306;SDS011;7237;49.500;11.400;2023-10-31T00:40:33;4.97;;;3.13;;
14306;SDS011;7237;49.500;11.400;2023-10-31T00:43:01;2.20;;;2.00;;
14306;SDS011;7237;49.500;11.400;2023-10-31T00:45:29;2.87;;;2.40;;
14306;SDS011;7237;49.500;11.400;2023-10-31T00:47:56;3.63;;;2.20;;
14306;SDS011;7237;49.500;11.400;2023-10-31T00:50:23;3.57;;;2.07;;
14306;SDS011;7237;49.500;11.400;2023-10-31T00:52:50;2.77;;;2.50;;
14306;SDS011;7237;49.500;11.400;2023-10-31T00:55:17;3.10;;;2.80;;
14306;SDS011;7237;49.500;11.400;2023-10-31T00:57:44;5.53;;;3.17;;
14306;SDS011;7237;49.500;11.400;2023-10-31T01:00:13;3.60;;;2.87;;
14306;SDS011;7237;49.500;11.400;2023-10-31T01:02:40;3.20;;;2.83;;
14306;SDS011;7237;49.500;11.400;2023-10-31T01:05:07;2.60;;;2.40;;
14306;SDS011;7237;49.500;11.400;2023-10-31T01:07:34;3.00;;;2.73;;
14306;SDS011;7237;49.500;11.400;2023-10-31T01:10:02;2.73;;;2.53;;
14306;SDS011;7237;49.500;11.400;2023-10-31T01:12:29;3.40;;;3.10;;
14306;SDS011;7237;49.500;11.400;2023-10-31T01:14:56;4.93;;;3.20;;
14306;SDS011;7237;49.500;11.400;2023-10-31T01:17:24;4.93;;;3.17;;
14306;SDS011;7237;49.500;11.400;2023-10-31T01:19:51;3.60;;;3.00;;
14306;SDS011;7237;49.500;11.400;2023-10-31T01:22:18;4.33;;;3.27;;
14306;SDS011;7237;49.500;11.400;2023-10-31T01:24:45;8.97;;;3.70;;
14306;SDS011;7237;49.500;11.400;2023-10-31T01:27:12;3.90;;;3.60;;
14306;SDS011;7237;49.500;11.400;2023-10-31T01:29:40;4.13;;;3.70;;
14306;SDS011;7237;49.500;11.400;2023-10-31T01:32:07;5.93;;;4.00;;
14306;SDS011;7237;49.500;11.400;2023-10-31T01:34:35;4.23;;;3.83;;
14306;SDS011;7237;49.500;11.400;2023-10-31T01:37:02;4.43;;;4.03;;
14306;SDS011;7237;49.500;11.400;2023-10-31T01:39:29;4.10;;;3.70;;
14306;SDS011;7237;49.500;11.400;2023-10-31T01:41:56;4.13;;;3.70;;
14306;SDS011;7237;49.500;11.400;2023-10-31T01:44:23;4.37;;;4.07;;
14306;SDS011;7237;49.500;11.400;2023-10-31T01:46:51;7.00;;;3.40;;
14306;SDS011;7237;49.500;11.400;2023-10-31T01:49:18;3.53;;;3.23;;
14306;SDS011;7237;49.500;11.400;2023-10-31T01:51:46;4.03;;;3.63;;
14306;SDS011;7237;49.500;11.400;2023-10-31T01:54:14;3.53;;;3.23;;
14306;SDS011;7237;49.500;11.400;2023-10-31T01:56:41;3.07;;;2.87;;
14306;SDS011;7237;49.500;11.400;2023-10-31T01:59:09;3.00;;;2.70;;
14306;SDS011;7237;49.500;11.400;2023-10-31T02:01:37;3.47;;;2.60;;
14306;SDS011;7237;49.500;11.400;2023-10-31T02:04:05;2.60;;;2.37;;
14306;SDS011;7237;49.500;11.400;2023-10-31T02:06:32;2.43;;;2.20;;
14306;SDS011;7237;49.500;11.400;2023-10-31T02:09:00;2.00;;;1.90;;
14306;SDS011;7237;49.500;11.400;2023-10-31T02:11:27;2.07;;;1.87;;
14306;SDS011;7237;49.500;11.400;2023-10-31T02:13:54;1.80;;;1.70;;
14306;SDS011;7237;49.500;11.400;2023-10-31T02:16:21;1.90;;;1.80;;
14306;SDS011;7237;49.500;11.400;2023-10-31T02:18:48;1.50;;;1.40;;
14306;SDS011;7237;49.500;11.400;2023-10-31T02:21:16;1.50;;;1.40;;
14306;SDS011;7237;49.500;11.400;2023-10-31T02:23:56;3.20;;;1.47;;
14306;SDS011;7237;49.500;11.400;2023-10-31T02:26:23;1.40;;;1.27;;
14306;SDS011;7237;49.500;11.400;2023-10-31T02:28:50;1.50;;;1.40;;
14306;SDS011;7237;49.500;11.400;2023-10-31T02:31:17;1.23;;;1.23;;
14306;SDS011;7237;49.500;11.400;2023-10-31T02:33:44;1.43;;;1.13;;
14306;SDS011;7237;49.500;11.400;2023-10-31T02:36:11;1.37;;;1.27;;
14306;SDS011;7237;49.500;11.400;2023-10-31T02:38:39;1.10;;;1.10;;
14306;SDS011;7237;49.500;11.400;2023-10-31T02:41:07;1.00;;;1.00;;
14306;SDS011;7237;49.500;11.400;2023-10-31T02:43:34;0.97;;;0.97;;
14306;SDS011;7237;49.500;11.400;2023-10-31T02:46:01;1.10;;;1.00;;
14306;SDS011;7237;49.500;11.400;2023-10-31T02:48:28;0.97;;;0.90;;
14306;SDS011;7237;49.500;11.400;2023-10-31T02:50:56;0.90;;;0.90;;
14306;SDS011;7237;49.500;11.400;2023-10-31T02:53:24;0.53;;;0.53;;
14306;SDS011;7237;49.500;11.400;2023-10-31T02:55:51;0.80;;;0.80;;
14306;SDS011;7237;49.500;11.400;2023-10-31T02:58:19;0.87;;;0.70;;
14306;SDS011;7237;49.500;11.400;2023-10-31T03:00:46;0.90;;;0.80;;
14306;SDS011;7237;49.500;11.400;2023-10-31T03:03:13;1.00;;;0.90;;
14306;SDS011;7237;49.500;11.400;2023-10-31T03:05:41;1.90;;;0.73;;
14306;SDS011;7237;49.500;11.400;2023-10-31T03:08:08;0.80;;;0.80;;
14306;SDS011;7237;49.500;11.400;2023-10-31T03:10:35;0.60;;;0.60;;
14306;SDS011;7237;49.500;11.400;2023-10-31T03:13:02;1.07;;;0.70;;
14306;SDS011;7237;49.500;11.400;2023-10-31T03:15:30;0.63;;;0.63;;
14306;SDS011;7237;49.500;11.400;2023-10-31T03:17:57;3.43;;;0.83;;
14306;SDS011;7237;49.500;11.400;2023-10-31T03:20:24;0.60;;;0.60;;
14306;SDS011;7237;49.500;11.400;2023-10-31T03:22:51;0.83;;;0.70;;
14306;SDS011;7237;49.500;11.400;2023-10-31T03:25:19;1.10;;;0.70;;
14306;SDS011;7237;49.500;11.400;2023-10-31T03:27:46;0.50;;;0.50;;
14306;SDS011;7237;49.500;11.400;2023-10-31T03:30:13;1.40;;;0.80;;
14306;SDS011;7237;49.500;11.400;2023-10-31T03:32:41;1.03;;;0.70;;
14306;SDS011;7237;49.500;11.400;2023-10-31T03:35:08;0.70;;;0.70;;
14306;SDS011;7237;49.500;11.400;2023-10-31T03:37:36;0.63;;;0.63;;
14306;SDS011;7237;49.500;11.400;2023-10-31T03:40:07;0.60;;;0.60;;
14306;SDS011;7237;49.500;11.400;2023-10-31T03:42:34;0.67;;;0.67;;
14306;SDS011;7237;49.500;11.400;2023-10-31T03:45:01;0.67;;;0.50;;
14306;SDS011;7237;49.500;11.400;2023-10-31T03:47:28;0.50;;;0.50;;
14306;SDS011;7237;49.500;11.400;2023-10-31T03:49:57;0.93;;;0.70;;
14306;SDS011;7237;49.500;11.400;2023-10-31T03:52:24;1.57;;;0.50;;
14306;SDS011;7237;49.500;11.400;2023-10-31T03:54:51;1.30;;;0.60;;
14306;SDS011;7237;49.500;11.400;2023-10-31T03:57:18;0.93;;;0.50;;
14306;SDS011;7237;49.500;11.400;2023-10-31T03:59:45;0.80;;;0.80;;
14306;SDS011;7237;49.500;11.400;2023-10-31T04:02:12;0.50;;;0.50;;
14306;SDS011;7237;49.500;11.400;2023-10-31T04:04:39;0.40;;;0.40;;
14306;SDS011;7237;49.500;11.400;2023-10-31T04:07:07;1.10;;;0.70;;
14306;SDS011;7237;49.500;11.400;2023-10-31T04:09:34;1.23;;;0.60;;
14306;SDS011;7237;49.500;11.400;2023-10-31T04:12:01;1.00;;;0.60;;
14306;SDS011;7237;49.500;11.400;2023-10-31T04:14:28;0.50;;;0.50;;
14306;SDS011;7237;49.500;11.400;2023-10-31T04:16:56;0.70;;;0.70;;
14306;SDS011;7237;49.500;11.400;2023-10-31T04:19:23;1.60;;;0.90;;
14306;SDS011;7237;49.500;11.400;2023-10-31T04:21:50;2.57;;;0.83;;
14306;SDS011;7237;49.500;11.400;2023-10-31T04:24:18;1.10;;;0.90;;
14306;SDS011;7237;49.500;11.400;2023-10-31T04:26:45;2.13;;;0.70;;
14306;SDS011;7237;49.500;11.400;2023-10-31T04:29:12;0.80;;;0.80;;
14306;SDS011;7237;49.500;11.400;2023-10-31T04:31:39;0.80;;;0.70;;
14306;SDS011;7237;49.500;11.400;2023-10-31T04:34:06;0.70;;;0.70;;
14306;SDS011;7237;49.500;11.400;2023-10-31T04:36:34;4.20;;;0.70;;
14306;SDS011;7237;49.500;11.400;2023-10-31T04:39:01;1.97;;;0.57;;
14306;SDS011;7237;49.500;11.400;2023-10-31T04:41:29;2.60;;;0.90;;
14306;SDS011;7237;49.500;11.400;2023-10-31T04:43:56;1.17;;;1.07;;
14306;SDS011;7237;49.500;11.400;2023-10-31T04:46:24;0.80;;;0.80;;
14306;SDS011;7237;49.500;11.400;2023-10-31T04:48:52;1.23;;;1.00;;
14306;SDS011;7237;49.500;11.400;2023-10-31T04:51:19;1.27;;;1.17;;
14306;SDS011;7237;49.500;11.400;2023-10-31T04:53:46;0.90;;;0.90;;
14306;SDS011;7237;49.500;11.400;2023-10-31T04:56:14;0.70;;;0.60;;
14306;SDS011;7237;49.500;11.400;2023-10-31T04:58:42;1.50;;;0.70;;
14306;SDS011;7237;49.500;11.400;2023-10-31T05:01:09;0.80;;;0.80;;
14306;SDS011;7237;49.500;11.400;2023-10-31T05:03:36;0.70;;;0.70;;
14306;SDS011;7237;49.500;11.400;2023-10-31T05:06:04;1.87;;;0.80;;
14306;SDS011;7237;49.500;11.400;2023-10-31T05:08:31;2.13;;;1.07;;
14306;SDS011;7237;49.500;11.400;2023-10-31T05:10:58;0.90;;;0.90;;
14306;SDS011;7237;49.500;11.400;2023-10-31T05:13:25;1.27;;;0.87;;
14306;SDS011;7237;49.500;11.400;2023-10-31T05:15:54;1.70;;;1.03;;
14306;SDS011;7237;49.500;11.400;2023-10-31T05:18:21;0.73;;;0.73;;
14306;SDS011;7237;49.500;11.400;2023-10-31T05:20:49;0.97;;;0.80;;
14306;SDS011;7237;49.500;11.400;2023-10-31T05:23:16;1.83;;;0.90;;
14306;SDS011;7237;49.500;11.400;2023-10-31T05:25:43;0.80;;;0.80;;
14306;SDS011;7237;49.500;11.400;2023-10-31T05:28:10;0.93;;;0.93;;
14306;SDS011;7237;49.500;11.400;2023-10-31T05:30:37;3.80;;;1.00;;
14306;SDS011;7237;49.500;11.400;2023-10-31T05:33:05;0.73;;;0.73;;
14306;SDS011;7237;49.500;11.400;2023-10-31T05:35:33;1.30;;;1.03;;
14306;SDS011;7237;49.500;11.400;2023-10-31T05:38:00;2.87;;;1.03;;
14306;SDS011;7237;49.500;11.400;2023-10-31T05:40:27;2.03;;;0.90;;
14306;SDS011;7237;49.500;11.400;2023-10-31T05:42:54;3.03;;;1.00;;
14306;SDS011;7237;49.500;11.400;2023-10-31T05:45:22;1.53;;;0.80;;
14306;SDS011;7237;49.500;11.400;2023-10-31T05:47:49;1.47;;;1.07;;
14306;SDS011;7237;49.500;11.400;2023-10-31T05:50:17;1.30;;;0.80;;
14306;SDS011;7237;49.500;11.400;2023-10-31T05:52:45;1.40;;;0.77;;
14306;SDS011;7237;49.500;11.400;2023-10-31T05:55:12;1.60;;;0.70;;
14306;SDS011;7237;49.500;11.400;2023-10-31T05:57:40;2.20;;;0.73;;
14306;SDS011;7237;49.500;11.400;2023-10-31T06:00:07;1.30;;;0.70;;
14306;SDS011;7237;49.500;11.400;2023-10-31T06:02:34;1.50;;;0.80;;
14306;SDS011;7237;49.500;11.400;2023-10-31T06:05:01;1.57;;;1.40;;
14306;SDS011;7237;49.500;11.400;2023-10-31T06:07:30;2.00;;;1.10;;
14306;SDS011;7237;49.500;11.400;2023-10-31T06:09:57;0.80;;;0.80;;
14306;SDS011;7237;49.500;11.400;2023-10-31T06:12:24;1.27;;;0.80;;
14306;SDS011;7237;49.500;11.400;2023-10-31T06:14:52;1.70;;;0.80;;
14306;SDS011;7237;49.500;11.400;2023-10-31T06:17:19;1.03;;;0.87;;
14306;SDS011;7237;49.500;11.400;2023-10-31T06:19:46;1.07;;;0.70;;
14306;SDS011;7237;49.500;11.400;2023-10-31T06:22:13;1.80;;;0.60;;
14306;SDS011;7237;49.500;11.400;2023-10-31T06:24:41;1.90;;;0.80;;
14306;SDS011;7237;49.500;11.400;2023-10-31T06:27:08;0.73;;;0.70;;
14306;SDS011;7237;49.500;11.400;2023-10-31T06:29:35;1.07;;;0.80;;
14306;SDS011;7237;49.500;11.400;2023-10-31T06:32:03;2.90;;;0.80;;
14306;SDS011;7237;49.500;11.400;2023-10-31T06:34:30;1.80;;;0.67;;
14306;SDS011;7237;49.500;11.400;2023-10-31T06:36:57;2.37;;;1.80;;
14306;SDS011;7237;49.500;11.400;2023-10-31T06:39:24;2.80;;;1.67;;
14306;SDS011;7237;49.500;11.400;2023-10-31T06:41:55;2.80;;;1.20;;
14306;SDS011;7237;49.500;11.400;2023-10-31T06:44:22;1.03;;;0.90;;
14306;SDS011;7237;49.500;11.400;2023-10-31T06:46:49;4.37;;;2.43;;
14306;SDS011;7237;49.500;11.400;2023-10-31T06:49:16;11.57;;;1.17;;
14306;SDS011;7237;49.500;11.400;2023-10-31T06:51:44;1.53;;;1.40;;
14306;SDS011;7237;49.500;11.400;2023-10-31T06:54:11;0.90;;;0.90;;
14306;SDS011;7237;49.500;11.400;2023-10-31T06:56:38;1.60;;;1.30;;
14306;SDS011;7237;49.500;11.400;2023-10-31T06:59:07;2.30;;;0.80;;
14306;SDS011;7237;49.500;11.400;2023-10-31T07:01:35;3.10;;;1.10;;
14306;SDS011;7237;49.500;11.400;2023-10-31T07:04:03;1.73;;;0.70;;
14306;SDS011;7237;49.500;11.400;2023-10-31T07:06:30;1.67;;;1.57;;
14306;SDS011;7237;49.500;11.400;2023-10-31T07:08:57;1.00;;;1.00;;
14306;SDS011;7237;49.500;11.400;2023-10-31T07:11:25;1.90;;;1.60;;
14306;SDS011;7237;49.500;11.400;2023-10-31T07:13:53;3.47;;;1.63;;
14306;SDS011;7237;49.500;11.400;2023-10-31T07:16:22;1.77;;;1.63;;
14306;SDS011;7237;49.500;11.400;2023-10-31T07:18:49;3.50;;;3.27;;
14306;SDS011;7237;49.500;11.400;2023-10-31T07:21:16;4.57;;;3.27;;
14306;SDS011;7237;49.500;11.400;2023-10-31T07:23:43;2.07;;;1.40;;
14306;SDS011;7237;49.500;11.400;2023-10-31T07:26:10;1.73;;;1.30;;
14306;SDS011;7237;49.500;11.400;2023-10-31T07:28:37;7.53;;;1.10;;
14306;SDS011;7237;49.500;11.400;2023-10-31T07:31:04;1.20;;;0.90;;
14306;SDS011;7237;49.500;11.400;2023-10-31T07:33:33;2.73;;;1.00;;
14306;SDS011;7237;49.500;11.400;2023-10-31T07:36:00;1.50;;;0.70;;
14306;SDS011;7237;49.500;11.400;2023-10-31T07:38:27;2.10;;;0.97;;
14306;SDS011;7237;49.500;11.400;2023-10-31T07:40:54;1.20;;;1.10;;
14306;SDS011;7237;49.500;11.400;2023-10-31T07:43:21;1.70;;;1.00;;
14306;SDS011;7237;49.500;11.400;2023-10-31T07:45:48;1.47;;;0.90;;
14306;SDS011;7237;49.500;11.400;2023-10-31T07:48:15;0.67;;;0.60;;
14306;SDS011;7237;49.500;11.400;2023-10-31T07:50:44;2.20;;;0.90;;
14306;SDS011;7237;49.500;11.400;2023-10-31T07:53:11;3.30;;;1.00;;
14306;SDS011;7237;49.500;11.400;2023-10-31T07:55:39;1.00;;;0.90;;
14306;SDS011;7237;49.500;11.400;2023-10-31T07:58:06;0.93;;;0.70;;
14306;SDS011;7237;49.500;11.400;2023-10-31T08:00:34;1.57;;;0.70;;
14306;SDS011;7237;49.500;11.400;2023-10-31T08:03:04;2.40;;;1.10;;
14306;SDS011;7237;49.500;11.400;2023-10-31T08:05:31;3.33;;;1.73;;
14306;SDS011;7237;49.500;11.400;2023-10-31T08:07:59;3.33;;;1.70;;
14306;SDS011;7237;49.500;11.400;2023-10-31T08:10:26;2.87;;;1.60;;
14306;SDS011;7237;49.500;11.400;2023-10-31T08:12:54;1.10;;;0.93;;
14306;SDS011;7237;49.500;11.400;2023-10-31T08:15:21;2.60;;;0.80;;
14306;SDS011;7237;49.500;11.400;2023-10-31T08:17:48;1.43;;;0.60;;
14306;SDS011;7237;49.500;11.400;2023-10-31T08:20:15;2.87;;;0.90;;
14306;SDS011;7237;49.500;11.400;2023-10-31T08:22:42;1.00;;;0.70;;
14306;SDS011;7237;49.500;11.400;2023-10-31T08:25:10;2.13;;;0.63;;
14306;SDS011;7237;49.500;11.400;2023-10-31T08:27:37;1.23;;;0.80;;
14306;SDS011;7237;49.500;11.400;2023-10-31T08:30:05;2.00;;;0.80;;
14306;SDS011;7237;49.500;11.400;2023-10-31T08:32:32;1.63;;;0.50;;
14306;SDS011;7237;49.500;11.400;2023-10-31T08:34:59;1.03;;;0.90;;
14306;SDS011;7237;49.500;11.400;2023-10-31T08:37:26;2.93;;;2.00;;
14306;SDS011;7237;49.500;11.400;2023-10-31T08:39:54;1.27;;;1.07;;
14306;SDS011;7237;49.500;11.400;2023-10-31T08:42:22;1.27;;;0.80;;
14306;SDS011;7237;49.500;11.400;2023-10-31T08:44:49;0.87;;;0.80;;
14306;SDS011;7237;49.500;11.400;2023-10-31T08:47:16;0.87;;;0.80;;
14306;SDS011;7237;49.500;11.400;2023-10-31T08:49:44;3.50;;;1.13;;
14306;SDS011;7237;49.500;11.400;2023-10-31T08:52:11;3.23;;;1.83;;
14306;SDS011;7237;49.500;11.400;2023-10-31T08:54:38;0.87;;;0.87;;
14306;SDS011;7237;49.500;11.400;2023-10-31T08:57:05;1.33;;;1.23;;
14306;SDS011;7237;49.500;11.400;2023-10-31T08:59:33;1.13;;;1.10;;
14306;SDS011;7237;49.500;11.400;2023-10-31T09:02:01;2.70;;;0.93;;
14306;SDS011;7237;49.500;11.400;2023-10-31T09:04:28;1.47;;;0.90;;
14306;SDS011;7237;49.500;11.400;2023-10-31T09:06:55;2.17;;;0.97;;
14306;SDS011;7237;49.500;11.400;2023-10-31T09:09:22;2.60;;;1.27;;
14306;SDS011;7237;49.500;11.400;2023-10-31T09:11:49;2.00;;;0.80;;
14306;SDS011;7237;49.500;11.400;2023-10-31T09:14:16;1.60;;;0.80;;
14306;SDS011;7237;49.500;11.400;2023-10-31T09:16:44;1.00;;;0.90;;
14306;SDS011;7237;49.500;11.400;2023-10-31T09:19:11;1.83;;;0.70;;
14306;SDS011;7237;49.500;11.400;2023-10-31T09:21:38;0.80;;;0.80;;
14306;SDS011;7237;49.500;11.400;2023-10-31T09:24:06;2.53;;;0.90;;
14306;SDS011;7237;49.500;11.400;2023-10-31T09:26:34;1.10;;;1.00;;
14306;SDS011;7237;49.500;11.400;2023-10-31T09:29:01;0.90;;;0.70;;
14306;SDS011;7237;49.500;11.400;2023-10-31T09:31:28;1.50;;;0.90;;
14306;SDS011;7237;49.500;11.400;2023-10-31T09:33:57;0.90;;;0.90;;
14306;SDS011;7237;49.500;11.400;2023-10-31T09:36:24;2.33;;;1.10;;
14306;SDS011;7237;49.500;11.400;2023-10-31T09:38:51;1.50;;;0.70;;
14306;SDS011;7237;49.500;11.400;2023-10-31T09:41:18;0.57;;;0.57;;
14306;SDS011;7237;49.500;11.400;2023-10-31T09:43:45;1.20;;;0.73;;
14306;SDS011;7237;49.500;11.400;2023-10-31T09:46:12;1.23;;;0.50;;
14306;SDS011;7237;49.500;11.400;2023-10-31T09:48:39;0.83;;;0.70;;
14306;SDS011;7237;49.500;11.400;2023-10-31T09:51:08;1.37;;;0.80;;
14306;SDS011;7237;49.500;11.400;2023-10-31T09:53:37;0.50;;;0.47;;
14306;SDS011;7237;49.500;11.400;2023-10-31T09:56:04;0.87;;;0.70;;
14306;SDS011;7237;49.500;11.400;2023-10-31T09:58:32;0.87;;;0.83;;
14306;SDS011;7237;49.500;11.400;2023-10-31T10:01:00;1.77;;;0.97;;
14306;SDS011;7237;49.500;11.400;2023-10-31T10:03:27;0.73;;;0.73;;
14306;SDS011;7237;49.500;11.400;2023-10-31T10:05:54;1.80;;;1.67;;
14306;SDS011;7237;49.500;11.400;2023-10-31T10:08:23;2.17;;;1.50;;
14306;SDS011;7237;49.500;11.400;2023-10-31T10:10:50;0.70;;;0.70;;
14306;SDS011;7237;49.500;11.400;2023-10-31T10:13:17;2.00;;;1.10;;
14306;SDS011;7237;49.500;11.400;2023-10-31T10:15:45;1.33;;;1.07;;
14306;SDS011;7237;49.500;11.400;2023-10-31T10:20:56;2.10;;;1.90;;
14306;SDS011;7237;49.500;11.400;2023-10-31T10:23:25;1.50;;;1.40;;
14306;SDS011;7237;49.500;11.400;2023-10-31T10:25:52;1.50;;;1.40;;
14306;SDS011;7237;49.500;11.400;2023-10-31T10:28:20;1.43;;;0.97;;
14306;SDS011;7237;49.500;11.400;2023-10-31T10:30:47;4.50;;;1.70;;
14306;SDS011;7237;49.500;11.400;2023-10-31T10:33:14;2.47;;;0.87;;
14306;SDS011;7237;49.500;11.400;2023-10-31T10:35:41;1.10;;;1.00;;
14306;SDS011;7237;49.500;11.400;2023-10-31T10:38:10;1.87;;;1.77;;
14306;SDS011;7237;49.500;11.400;2023-10-31T10:40:39;1.90;;;1.60;;
14306;SDS011;7237;49.500;11.400;2023-10-31T10:43:08;2.07;;;1.40;;
14306;SDS011;7237;49.500;11.400;2023-10-31T10:45:37;1.73;;;1.53;;
14306;SDS011;7237;49.500;11.400;2023-10-31T10:48:05;3.77;;;1.13;;
14306;SDS011;7237;49.500;11.400;2023-10-31T10:50:37;1.17;;;0.90;;
14306;SDS011;7237;49.500;11.400;2023-10-31T10:53:07;0.90;;;0.80;;
14306;SDS011;7237;49.500;11.400;2023-10-31T10:55:37;3.17;;;1.47;;
14306;SDS011;7237;49.500;11.400;2023-10-31T10:58:08;1.00;;;0.90;;
14306;SDS011;7237;49.500;11.400;2023-10-31T11:00:37;2.43;;;1.07;;
14306;SDS011;7237;49.500;11.400;2023-10-31T11:03:05;2.30;;;1.10;;
14306;SDS011;7237;49.500;11.400;2023-10-31T11:05:32;2.13;;;1.10;;
14306;SDS011;7237;49.500;11.400;2023-10-31T11:08:00;1.47;;;1.37;;
14306;SDS011;7237;49.500;11.400;2023-10-31T11:10:28;2.07;;;1.40;;
14306;SDS011;7237;49.500;11.400;2023-10-31T11:12:56;2.50;;;1.40;;
14306;SDS011;7237;49.500;11.400;2023-10-31T11:15:24;2.27;;;1.30;;
14306;SDS011;7237;49.500;11.400;2023-10-31T11:17:52;2.43;;;0.90;;
14306;SDS011;7237;49.500;11.400;2023-10-31T11:20:19;2.40;;;2.20;;
14306;SDS011;7237;49.500;11.400;2023-10-31T11:22:47;1.87;;;1.10;;
14306;SDS011;7237;49.500;11.400;2023-10-31T11:25:17;1.30;;;1.20;;
14306;SDS011;7237;49.500;11.400;2023-10-31T11:27:45;2.13;;;1.40;;
14306;SDS011;7237;49.500;11.400;2023-10-31T11:30:19;1.27;;;0.80;;
14306;SDS011;7237;49.500;11.400;2023-10-31T11:32:48;1.00;;;0.90;;
14306;SDS011;7237;49.500;11.400;2023-10-31T11:35:16;1.60;;;1.10;;
14306;SDS011;7237;49.500;11.400;2023-10-31T11:37:43;1.57;;;1.30;;
14306;SDS011;7237;49.500;11.400;2023-10-31T11:40:14;3.40;;;1.00;;
14306;SDS011;7237;49.500;11.400;2023-10-31T11:42:41;6.27;;;2.40;;
14306;SDS011;7237;49.500;11.400;2023-10-31T11:45:08;1.10;;;0.90;;
14306;SDS011;7237;49.500;11.400;2023-10-31T11:47:45;2.60;;;1.90;;
14306;SDS011;7237;49.500;11.400;2023-10-31T11:50:15;3.90;;;1.20;;
14306;SDS011;7237;49.500;11.400;2023-10-31T11:52:42;1.43;;;0.93;;
14306;SDS011;7237;49.500;11.400;2023-10-31T11:55:10;0.83;;;0.80;;
14306;SDS011;7237;49.500;11.400;2023-10-31T11:57:39;1.27;;;1.17;;
14306;SDS011;7237;49.500;11.400;2023-10-31T12:00:06;1.40;;;1.30;;
14306;SDS011;7237;49.500;11.400;2023-10-31T12:02:35;3.27;;;2.43;;
14306;SDS011;7237;49.500;11.400;2023-10-31T12:05:06;6.10;;;5.03;;
14306;SDS011;7237;49.500;11.400;2023-10-31T12:07:42;3.43;;;2.63;;
14306;SDS011;7237;49.500;11.400;2023-10-31T12:10:09;4.77;;;2.80;;
14306;SDS011;7237;49.500;11.400;2023-10-31T12:12:36;3.10;;;2.27;;
14306;SDS011;7237;49.500;11.400;2023-10-31T12:15:06;4.73;;;3.97;;
14306;SDS011;7237;49.500;11.400;2023-10-31T12:17:33;11.87;;;8.67;;
14306;SDS011;7237;49.500;11.400;2023-10-31T12:20:03;13.90;;;9.83;;
14306;SDS011;7237;49.500;11.400;2023-10-31T12:22:30;12.13;;;8.70;;
14306;SDS011;7237;49.500;11.400;2023-10-31T12:25:01;10.50;;;5.27;;
14306;SDS011;7237;49.500;11.400;2023-10-31T12:27:41;20.07;;;12.80;;
14306;SDS011;7237;49.500;11.400;2023-10-31T12:30:09;8.63;;;4.97;;
14306;SDS011;7237;49.500;11.400;2023-10-31T12:32:37;1.30;;;1.20;;
14306;SDS011;7237;49.500;11.400;2023-10-31T12:35:04;2.77;;;1.60;;
14306;SDS011;7237;49.500;11.400;2023-10-31T12:37:31;1.60;;;1.00;;
14306;SDS011;7237;49.500;11.400;2023-10-31T12:39:58;2.30;;;1.10;;
14306;SDS011;7237;49.500;11.400;2023-10-31T12:42:30;3.30;;;2.07;;
14306;SDS011;7237;49.500;11.400;2023-10-31T12:44:58;1.57;;;1.30;;
14306;SDS011;7237;49.500;11.400;2023-10-31T12:47:25;3.17;;;1.07;;
14306;SDS011;7237;49.500;11.400;2023-10-31T12:50:08;1.63;;;1.03;;
14306;SDS011;7237;49.500;11.400;2023-10-31T12:52:48;1.40;;;1.30;;
14306;SDS011;7237;49.500;11.400;2023-10-31T12:55:16;1.33;;;1.23;;
14306;SDS011;7237;49.500;11.400;2023-10-31T12:57:44;2.57;;;1.10;;
14306;SDS011;7237;49.500;11.400;2023-10-31T13:00:12;1.00;;;1.00;;
14306;SDS011;7237;49.500;11.400;2023-10-31T13:02:40;1.37;;;1.07;;
14306;SDS011;7237;49.500;11.400;2023-10-31T13:05:08;1.83;;;1.73;;
14306;SDS011;7237;49.500;11.400;2023-10-31T13:07:35;2.57;;;1.27;;
14306;SDS011;7237;49.500;11.400;2023-10-31T13:10:02;1.83;;;1.47;;
14306;SDS011;7237;49.500;11.400;2023-10-31T13:12:29;2.23;;;1.00;;
14306;SDS011;7237;49.500;11.400;2023-10-31T13:14:58;5.03;;;4.17;;
14306;SDS011;7237;49.500;11.400;2023-10-31T13:17:26;8.57;;;6.50;;
14306;SDS011;7237;49.500;11.400;2023-10-31T13:19:53;8.57;;;7.70;;
14306;SDS011;7237;49.500;11.400;2023-10-31T13:22:20;3.63;;;2.30;;
14306;SDS011;7237;49.500;11.400;2023-10-31T13:24:47;2.80;;;2.30;;
14306;SDS011;7237;49.500;11.400;2023-10-31T13:27:14;1.83;;;1.20;;
14306;SDS011;7237;49.500;11.400;2023-10-31T13:29:42;5.43;;;1.27;;
14306;SDS011;7237;49.500;11.400;2023-10-31T13:32:12;2.40;;;1.97;;
14306;SDS011;7237;49.500;11.400;2023-10-31T13:34:39;3.30;;;1.60;;
14306;SDS011;7237;49.500;11.400;2023-10-31T13:37:06;3.33;;;1.70;;
14306;SDS011;7237;49.500;11.400;2023-10-31T13:39:33;3.30;;;1.37;;
14306;SDS011;7237;49.500;11.400;2023-10-31T13:42:00;2.23;;;1.53;;
14306;SDS011;7237;49.500;11.400;2023-10-31T13:44:27;3.70;;;1.77;;
14306;SDS011;7237;49.500;11.400;2023-10-31T13:46:55;5.17;;;1.77;;
14306;SDS011;7237;49.500;11.400;2023-10-31T13:49:23;1.23;;;1.10;;
14306;SDS011;7237;49.500;11.400;2023-10-31T13:51:50;3.57;;;2.07;;
14306;SDS011;7237;49.500;11.400;2023-10-31T13:54:17;4.37;;;3.37;;
14306;SDS011;7237;49.500;11.400;2023-10-31T13:56:45;1.80;;;1.57;;
14306;SDS011;7237;49.500;11.400;2023-10-31T13:59:12;1.83;;;1.40;;
14306;SDS011;7237;49.500;11.400;2023-10-31T14:01:39;4.40;;;2.70;;
14306;SDS011;7237;49.500;11.400;2023-10-31T14:04:07;2.57;;;1.50;;
14306;SDS011;7237;49.500;11.400;2023-10-31T14:06:35;4.00;;;1.43;;
14306;SDS011;7237;49.500;11.400;2023-10-31T14:09:04;4.07;;;2.07;;
14306;SDS011;7237;49.500;11.400;2023-10-31T14:11:32;2.30;;;1.93;;
14306;SDS011;7237;49.500;11.400;2023-10-31T14:13:59;2.83;;;1.70;;
14306;SDS011;7237;49.500;11.400;2023-10-31T14:16:31;1.20;;;1.10;;
14306;SDS011;7237;49.500;11.400;2023-10-31T14:18:58;3.10;;;1.10;;
14306;SDS011;7237;49.500;11.400;2023-10-31T14:21:27;2.00;;;1.30;;
14306;SDS011;7237;49.500;11.400;2023-10-31T14:23:55;1.47;;;1.37;;
14306;SDS011;7237;49.500;11.400;2023-10-31T14:26:23;1.57;;;1.40;;
14306;SDS011;7237;49.500;11.400;2023-10-31T14:28:50;2.00;;;1.20;;
14306;SDS011;7237;49.500;11.400;2023-10-31T14:31:17;2.03;;;1.50;;
14306;SDS011;7237;49.500;11.400;2023-10-31T14:33:45;1.40;;;1.30;;
14306;SDS011;7237;49.500;11.400;2023-10-31T14:36:12;1.93;;;1.40;;
14306;SDS011;7237;49.500;11.400;2023-10-31T14:38:40;3.83;;;1.43;;
14306;SDS011;7237;49.500;11.400;2023-10-31T14:41:08;1.10;;;1.03;;
14306;SDS011;7237;49.500;11.400;2023-10-31T14:43:36;2.30;;;1.60;;
14306;SDS011;7237;49.500;11.400;2023-10-31T14:46:03;4.13;;;1.30;;
14306;SDS011;7237;49.500;11.400;2023-10-31T14:48:32;2.43;;;1.67;;
14306;SDS011;7237;49.500;11.400;2023-10-31T14:50:59;1.50;;;1.10;;
14306;SDS011;7237;49.500;11.400;2023-10-31T14:53:27;3.93;;;1.37;;